Time;durP1;ratioP1;P1;durP2;ratioP2;P2;SDS_P1;SDS_P2;PMS_P1;PMS_P2;Temp;Humidity;BMP_temperature;BMP_pressure;BME280_temperature;BME280_humidity;BME280_pressure;Samples;Min_cycle;Max_cycle;Signal;HPM_P1;HPM_P2
2023/05/26 00:00:05;;;;;;;22.30;10.32;;;;;;;11.35;91.13;101944.44;4997910;28;20109;-79
2023/05/26 00:02:31;;;;;;;32.78;11.63;;;;;;;11.33;90.91;101947.22;5000224;28;20061;-80
2023/05/26 00:04:59;;;;;;;27.80;10.93;;;;;;;11.30;90.94;101948.28;4994202;28;20074;-80
2023/05/26 00:07:26;;;;;;;20.25;9.75;;;;;;;11.26;91.41;101946.88;4982793;28;20081;-80
2023/05/26 00:09:52;;;;;;;31.08;11.38;;;;;;;11.27;91.41;101953.78;4978893;28;20137;-80
2023/05/26 00:12:19;;;;;;;25.05;10.90;;;;;;;11.25;91.13;101957.50;4992951;28;20133;-79
2023/05/26 00:14:46;;;;;;;25.42;11.10;;;;;;;11.37;91.23;101959.06;4984371;28;20060;-78
2023/05/26 00:17:16;;;;;;;26.88;10.65;;;;;;;11.44;91.32;101964.63;4989452;28;20043;-78
2023/05/26 00:19:43;;;;;;;27.70;11.25;;;;;;;11.40;90.76;101960.59;4990399;28;20053;-79
2023/05/26 00:22:10;;;;;;;23.67;11.23;;;;;;;11.35;90.60;101960.97;5000168;28;20130;-79
2023/05/26 00:24:37;;;;;;;24.25;10.48;;;;;;;11.33;90.30;101967.34;4990203;28;20050;-77
2023/05/26 00:27:04;;;;;;;27.38;10.75;;;;;;;11.28;90.17;101960.69;4985532;28;20111;-79
2023/05/26 00:29:31;;;;;;;26.77;11.13;;;;;;;11.28;90.36;101962.47;4989548;28;20058;-78
2023/05/26 00:31:58;;;;;;;26.25;10.07;;;;;;;11.21;90.53;101963.94;4999048;28;20057;-79
2023/05/26 00:34:26;;;;;;;28.27;10.82;;;;;;;11.15;90.73;101956.59;5003565;28;20055;-79
2023/05/26 00:36:52;;;;;;;28.80;11.40;;;;;;;11.07;91.15;101965.09;4997689;28;20080;-78
2023/05/26 00:39:19;;;;;;;25.55;11.43;;;;;;;11.02;91.39;101974.28;4987612;28;20623;-79
2023/05/26 00:41:46;;;;;;;27.85;10.95;;;;;;;10.92;92.18;101977.66;4996240;28;20082;-77
2023/05/26 00:44:13;;;;;;;26.00;10.80;;;;;;;10.86;92.70;101978.19;4989218;28;20057;-79
2023/05/26 00:46:40;;;;;;;27.75;11.82;;;;;;;10.80;93.05;101976.06;4997359;28;20051;-79
2023/05/26 00:49:06;;;;;;;26.70;10.93;;;;;;;10.73;93.53;101974.06;4992916;28;20082;-79
2023/05/26 00:51:34;;;;;;;24.05;10.63;;;;;;;10.68;93.76;101971.81;4990948;28;20054;-79
2023/05/26 00:54:01;;;;;;;26.33;11.18;;;;;;;10.70;93.81;101975.13;4990999;28;20089;-78
2023/05/26 00:56:29;;;;;;;31.10;12.32;;;;;;;10.68;93.94;101976.19;4979803;28;20058;-80
2023/05/26 00:58:56;;;;;;;23.95;11.75;;;;;;;10.68;94.32;101971.81;4987534;28;20078;-80
2023/05/26 01:01:23;;;;;;;26.40;11.90;;;;;;;10.64;94.22;101975.63;4987125;28;20125;-79
2023/05/26 01:03:50;;;;;;;34.05;12.23;;;;;;;10.60;94.57;101974.19;4985990;28;20138;-79
2023/05/26 01:06:17;;;;;;;32.70;11.35;;;;;;;10.57;94.43;101964.81;4994275;28;20498;-79
2023/05/26 01:08:45;;;;;;;30.10;11.23;;;;;;;10.52;94.32;101971.34;4979067;28;20056;-79
2023/05/26 01:11:17;;;;;;;24.27;11.05;;;;;;;10.49;94.67;101971.59;4988761;28;20089;-79
2023/05/26 01:13:52;;;;;;;25.50;12.00;;;;;;;10.48;94.84;101975.19;4978210;28;20125;-79
2023/05/26 01:16:22;;;;;;;32.10;12.35;;;;;;;10.47;94.75;101963.03;4987728;28;20050;-79
2023/05/26 01:18:56;;;;;;;30.38;11.45;;;;;;;10.43;94.76;101969.47;4985743;28;20057;-77
2023/05/26 01:21:29;;;;;;;22.25;9.63;;;;;;;10.46;94.53;101971.84;4998981;28;20211;-79
2023/05/26 01:24:15;;;;;;;28.27;11.27;;;;;;;10.36;94.60;101971.78;4981742;28;20066;-79
2023/05/26 01:26:55;;;;;;;26.20;10.60;;;;;;;10.30;94.73;101967.84;4983265;28;20518;-78
2023/05/26 01:29:26;;;;;;;32.30;10.65;;;;;;;10.29;94.96;101971.44;4988085;28;20170;-77
2023/05/26 01:31:53;;;;;;;32.72;10.50;;;;;;;10.23;94.73;101961.44;4995255;28;20175;-77
2023/05/26 01:34:19;;;;;;;24.40;9.95;;;;;;;10.21;94.59;101973.81;5020674;22;20142;-79
2023/05/26 01:36:46;;;;;;;31.55;10.30;;;;;;;10.18;94.52;101974.03;5017046;28;20375;-79
2023/05/26 01:39:13;;;;;;;29.27;9.55;;;;;;;10.17;94.60;101968.91;5015354;28;20468;-78
2023/05/26 01:41:44;;;;;;;28.75;10.52;;;;;;;10.15;94.57;101979.50;5014304;28;20156;-78
2023/05/26 01:44:17;;;;;;;32.80;9.85;;;;;;;10.14;94.33;101977.81;5009667;28;20481;-79
2023/05/26 01:46:48;;;;;;;;;;;;;;;10.14;94.29;101983.06;4995339;28;20082;-79
2023/05/26 01:49:15;;;;;;;34.33;9.88;;;;;;;10.13;94.17;101976.16;5000925;28;19960;-79
2023/05/26 01:51:46;;;;;;;25.40;9.60;;;;;;;10.06;94.07;101972.34;5001336;28;20129;-80
2023/05/26 01:54:16;;;;;;;34.13;10.43;;;;;;;10.06;94.19;101976.75;5004215;28;20042;-80
2023/05/26 01:56:45;;;;;;;36.10;9.68;;;;;;;10.08;94.03;101985.31;5002928;28;20084;-80
2023/05/26 01:59:12;;;;;;;31.50;9.70;;;;;;;10.05;93.82;101986.38;5010161;28;20074;-79
2023/05/26 02:01:39;;;;;;;24.27;8.27;;;;;;;10.04;93.41;101986.50;5001885;28;20078;-78
2023/05/26 02:04:09;;;;;;;32.95;9.75;;;;;;;9.96;93.38;101990.53;4996416;28;20057;-79
2023/05/26 02:06:37;;;;;;;39.75;10.25;;;;;;;9.98;93.60;101993.88;4998039;28;20057;-79
2023/05/26 02:09:05;;;;;;;39.55;9.85;;;;;;;9.98;93.34;101990.44;4998216;28;20050;-80
2023/05/26 02:11:31;;;;;;;33.15;8.82;;;;;;;9.97;93.27;101983.53;4995394;28;20058;-80
2023/05/26 02:13:58;;;;;;;35.75;9.18;;;;;;;9.96;93.01;101992.31;4998185;28;20062;-80
2023/05/26 02:16:25;;;;;;;33.42;9.25;;;;;;;9.98;93.15;101996.50;4998287;28;20051;-79
2023/05/26 02:18:52;;;;;;;37.47;8.73;;;;;;;9.93;93.25;101989.94;4993907;28;20403;-78
2023/05/26 02:21:20;;;;;;;27.25;8.38;;;;;;;9.89;93.11;101986.75;4994178;28;20050;-78
2023/05/26 02:23:47;;;;;;;27.13;8.35;;;;;;;9.81;93.31;101996.97;4989214;28;20054;-78
2023/05/26 02:26:13;;;;;;;32.38;9.00;;;;;;;9.74;93.23;101987.94;4994457;28;20125;-78
2023/05/26 02:28:41;;;;;;;33.40;9.52;;;;;;;9.73;93.40;101985.44;4994408;28;20100;-77
2023/05/26 02:31:08;;;;;;;31.48;8.35;;;;;;;9.71;93.52;101984.72;4991168;28;20125;-78
2023/05/26 02:33:35;;;;;;;28.25;7.88;;;;;;;9.70;93.57;101990.91;4995495;28;20133;-79
2023/05/26 02:36:01;;;;;;;23.50;8.07;;;;;;;9.59;93.68;101982.09;4995736;28;20559;-79
2023/05/26 02:38:30;;;;;;;27.45;7.78;;;;;;;9.58;93.53;101990.03;4994986;28;20097;-79
2023/05/26 02:40:57;;;;;;;27.52;7.43;;;;;;;9.56;93.95;101990.16;4994465;28;20134;-79
2023/05/26 02:43:24;;;;;;;25.33;7.63;;;;;;;9.51;94.14;101987.06;4992328;28;20054;-79
2023/05/26 02:45:51;;;;;;;39.88;9.60;;;;;;;9.48;94.11;101983.84;4994377;28;20186;-78
2023/05/26 02:48:18;;;;;;;32.33;8.80;;;;;;;9.46;94.32;101980.50;4994751;28;20053;-78
2023/05/26 02:50:47;;;;;;;25.75;8.43;;;;;;;9.41;94.15;101988.72;4993953;28;20513;-78
2023/05/26 02:53:15;;;;;;;28.00;8.60;;;;;;;9.43;94.42;101986.84;4994519;28;20119;-79
2023/05/26 02:55:44;;;;;;;29.60;7.65;;;;;;;9.42;94.21;101979.94;4995972;28;20437;-79
2023/05/26 02:58:12;;;;;;;31.85;8.75;;;;;;;9.35;94.52;101991.78;4995530;28;20185;-79
2023/05/26 03:00:39;;;;;;;31.15;8.10;;;;;;;9.31;94.58;101987.75;4996688;28;20105;-79
2023/05/26 03:03:05;;;;;;;30.88;7.95;;;;;;;9.30;94.91;101981.69;4999117;28;20134;-80
2023/05/26 03:05:32;;;;;;;31.70;8.52;;;;;;;9.30;94.85;101986.09;4995804;28;20046;-78
2023/05/26 03:07:59;;;;;;;34.67;8.55;;;;;;;9.24;94.77;101981.31;4993134;28;20050;-80
2023/05/26 03:10:25;;;;;;;33.65;8.02;;;;;;;9.26;94.96;101979.41;4998689;28;20547;-80
2023/05/26 03:12:53;;;;;;;34.25;8.95;;;;;;;9.22;94.87;101988.44;4993506;28;20125;-80
2023/05/26 03:15:20;;;;;;;34.83;8.90;;;;;;;9.17;94.96;101985.31;5000132;28;20077;-81
2023/05/26 03:17:47;;;;;;;28.17;8.07;;;;;;;9.14;94.87;101985.53;4993245;28;20129;-81
2023/05/26 03:20:13;;;;;;;31.40;8.55;;;;;;;9.12;95.20;101992.66;4997382;28;20125;-79
2023/05/26 03:22:40;;;;;;;33.08;8.68;;;;;;;9.07;95.18;101989.56;4990922;28;20054;-79
2023/05/26 03:25:07;;;;;;;34.25;9.15;;;;;;;9.05;95.44;101996.66;4995036;28;20120;-79
2023/05/26 03:27:33;;;;;;;27.58;8.70;;;;;;;9.02;95.89;101987.28;4994512;28;20054;-78
2023/05/26 03:30:02;;;;;;;33.60;9.38;;;;;;;9.02;96.05;101996.88;4993610;28;20138;-78
2023/05/26 03:32:29;;;;;;;26.92;7.90;;;;;;;8.94;96.39;102005.31;4989138;28;20046;-78
2023/05/26 03:34:56;;;;;;;30.95;8.85;;;;;;;8.88;96.77;101997.91;4996707;28;20073;-79
2023/05/26 03:37:22;;;;;;;28.73;7.95;;;;;;;8.84;96.80;102005.13;4996609;28;20038;-79
2023/05/26 03:39:49;;;;;;;28.35;7.88;;;;;;;8.85;97.01;101998.97;4993879;28;20050;-81
2023/05/26 03:42:15;;;;;;;29.13;8.38;;;;;;;8.76;97.19;101996.19;4992051;28;20137;-79
2023/05/26 03:44:42;;;;;;;33.22;7.95;;;;;;;8.78;97.04;102010.81;4990254;28;20046;-79
2023/05/26 03:47:10;;;;;;;36.58;9.50;;;;;;;8.76;97.07;102006.63;4989850;28;20050;-78
2023/05/26 03:49:37;;;;;;;35.13;7.85;;;;;;;8.75;97.09;102003.19;4993968;28;20133;-80
2023/05/26 03:52:03;;;;;;;29.83;8.50;;;;;;;8.75;97.19;102005.78;4993040;28;20101;-78
2023/05/26 03:54:30;;;;;;;35.00;8.95;;;;;;;8.77;97.03;102011.75;4992634;28;20056;-78
2023/05/26 03:56:57;;;;;;;35.08;8.10;;;;;;;8.90;96.94;102006.47;4999131;28;20387;-79
2023/05/26 03:59:24;;;;;;;30.65;8.55;;;;;;;8.95;96.64;102013.03;4998053;28;20042;-80
2023/05/26 04:01:53;;;;;;;29.98;8.75;;;;;;;9.07;96.20;102006.06;4997907;28;20081;-79
2023/05/26 04:04:21;;;;;;;31.08;8.02;;;;;;;9.12;95.71;102005.72;4999540;28;20050;-80
2023/05/26 04:06:47;;;;;;;31.15;8.68;;;;;;;9.22;95.34;102006.72;5000383;28;20513;-79
2023/05/26 04:09:14;;;;;;;35.47;8.93;;;;;;;9.35;94.87;102004.03;5001754;28;20081;-80
2023/05/26 04:11:41;;;;;;;29.38;8.85;;;;;;;9.40;94.44;102002.75;4995563;28;20141;-79
2023/05/26 04:14:07;;;;;;;31.33;8.55;;;;;;;9.46;93.88;102002.25;4998898;28;20095;-80
2023/05/26 04:16:34;;;;;;;28.15;8.90;;;;;;;9.54;93.28;101989.44;4999152;28;20073;-79
2023/05/26 04:19:01;;;;;;;31.23;8.55;;;;;;;9.51;93.19;102000.13;4995142;28;20106;-82
2023/05/26 04:21:30;;;;;;;25.92;9.25;;;;;;;9.43;93.34;101997.28;4998145;28;20093;-81
2023/05/26 04:23:57;;;;;;;31.90;8.82;;;;;;;9.52;92.82;101991.34;4997900;28;20050;-82
2023/05/26 04:26:24;;;;;;;32.70;8.65;;;;;;;9.65;92.59;101989.47;4993920;28;20587;-80
2023/05/26 04:28:52;;;;;;;28.95;9.35;;;;;;;9.44;92.63;102001.56;4994191;28;20054;-81
2023/05/26 04:31:18;;;;;;;33.63;9.07;;;;;;;9.31;92.57;102004.25;4995753;28;20053;-80
2023/05/26 04:33:45;;;;;;;38.47;9.73;;;;;;;9.53;92.86;102011.28;4997672;28;20054;-79
2023/05/26 04:36:13;;;;;;;29.92;9.32;;;;;;;9.54;92.52;102012.13;4998301;28;20117;-80
2023/05/26 04:38:45;;;;;;;29.77;9.98;;;;;;;9.59;92.78;102013.44;4997003;28;20061;-79
2023/05/26 04:41:12;;;;;;;31.88;9.98;;;;;;;9.79;92.17;102006.72;4997187;28;20084;-80
2023/05/26 04:43:40;;;;;;;34.65;10.48;;;;;;;10.02;91.50;102004.94;4998261;28;20053;-81
2023/05/26 04:46:08;;;;;;;33.72;10.75;;;;;;;10.15;90.80;102000.41;4995750;28;20045;-79
2023/05/26 04:48:36;;;;;;;35.30;10.50;;;;;;;10.05;90.61;102009.91;4998017;28;20126;-80
2023/05/26 04:51:02;;;;;;;40.15;11.30;;;;;;;10.05;90.52;102014.31;4996525;28;20127;-79
2023/05/26 04:53:29;;;;;;;33.53;10.00;;;;;;;10.28;90.11;102010.78;4993455;28;20109;-81
2023/05/26 04:55:59;;;;;;;39.47;10.93;;;;;;;10.50;89.58;102015.16;5000078;28;20125;-79
2023/05/26 04:58:26;;;;;;;29.85;10.43;;;;;;;10.83;88.72;102012.47;4995057;28;20558;-79
2023/05/26 05:00:53;;;;;;;33.53;10.98;;;;;;;10.50;88.30;102009.91;4998257;28;20414;-79
2023/05/26 05:03:20;;;;;;;35.70;10.50;;;;;;;10.92;87.83;102016.09;4994255;28;20046;-80
2023/05/26 05:05:47;;;;;;;34.03;11.13;;;;;;;11.01;87.03;102019.75;5002559;28;20045;-79
2023/05/26 05:08:14;;;;;;;33.72;11.27;;;;;;;10.85;86.87;102010.56;5011515;28;20039;-80
2023/05/26 05:10:41;;;;;;;36.85;11.73;;;;;;;11.13;86.85;102018.75;5005692;28;20042;-79
2023/05/26 05:13:09;;;;;;;37.25;11.70;;;;;;;11.08;86.72;102015.69;4999839;28;20085;-80
2023/05/26 05:15:35;;;;;;;36.60;11.50;;;;;;;10.79;86.73;102021.50;4998289;28;20057;-80
2023/05/26 05:18:02;;;;;;;33.70;11.15;;;;;;;11.12;86.76;102023.16;4994250;28;20173;-80
2023/05/26 05:20:29;;;;;;;36.13;11.38;;;;;;;11.47;85.59;102017.63;4995306;28;20061;-79
2023/05/26 05:22:56;;;;;;;32.08;11.75;;;;;;;12.30;83.42;102008.78;4995310;28;20137;-79
2023/05/26 05:25:22;;;;;;;38.63;11.93;;;;;;;12.86;81.36;102011.66;4994534;28;20137;-80
2023/05/26 05:27:49;;;;;;;29.35;12.32;;;;;;;12.68;80.11;102012.50;4995685;28;20084;-79
2023/05/26 05:30:18;;;;;;;33.30;11.57;;;;;;;13.00;78.81;102010.44;4995503;28;20051;-79
2023/05/26 05:32:46;;;;;;;31.80;11.10;;;;;;;13.39;77.91;102015.69;4995898;28;20490;-80
2023/05/26 05:35:12;;;;;;;39.03;12.10;;;;;;;12.69;78.39;102014.97;4990239;28;20046;-78
2023/05/26 05:37:39;;;;;;;42.03;13.35;;;;;;;12.86;78.32;102030.06;4987900;28;20137;-80
2023/05/26 05:40:07;;;;;;;36.20;12.35;;;;;;;12.63;78.64;102029.47;4995983;28;20454;-80
2023/05/26 05:42:34;;;;;;;30.35;12.13;;;;;;;12.89;78.41;102035.03;4990574;28;20046;-79
2023/05/26 05:45:00;;;;;;;33.80;12.77;;;;;;;13.19;77.83;102033.28;4995690;28;20074;-79
2023/05/26 05:47:28;;;;;;;30.35;12.18;;;;;;;13.90;76.45;102025.81;4994321;28;20062;-77
2023/05/26 05:49:55;;;;;;;35.22;12.77;;;;;;;13.18;75.62;102032.47;4990505;28;20066;-78
2023/05/26 05:52:22;;;;;;;31.08;12.80;;;;;;;13.85;75.60;102028.03;4993325;28;20542;-79
2023/05/26 05:54:48;;;;;;;41.45;13.30;;;;;;;13.98;74.36;102028.56;4994346;28;20133;-80
2023/05/26 05:57:15;;;;;;;37.72;12.68;;;;;;;14.48;72.79;102025.56;4995174;28;20052;-81
2023/05/26 05:59:41;;;;;;;35.10;13.20;;;;;;;14.09;74.07;102025.75;4995419;28;20066;-81
2023/05/26 06:02:08;;;;;;;31.85;12.55;;;;;;;13.97;73.79;102026.06;4992898;28;20143;-80
2023/05/26 06:04:36;;;;;;;30.30;11.98;;;;;;;14.03;74.18;102044.75;4994252;28;20434;-80
2023/05/26 06:07:03;;;;;;;30.50;12.38;;;;;;;14.20;73.91;102041.31;4995097;28;20113;-81
2023/05/26 06:09:29;;;;;;;36.90;14.63;;;;;;;14.58;73.08;102047.44;4993388;28;20507;-82
2023/05/26 06:11:56;;;;;;;34.05;13.18;;;;;;;16.06;70.17;102035.28;4996534;28;20109;-81
2023/05/26 06:14:23;;;;;;;34.83;13.38;;;;;;;16.00;69.20;102034.09;4996244;28;20074;-81
2023/05/26 06:16:49;;;;;;;40.63;13.73;;;;;;;15.05;69.08;102031.44;4997794;28;20129;-81
2023/05/26 06:19:16;;;;;;;32.63;14.07;;;;;;;14.38;72.28;102051.09;5001550;28;20404;-80
2023/05/26 06:21:44;;;;;;;30.50;13.85;;;;;;;15.51;71.69;102052.25;5001006;28;20058;-81
2023/05/26 06:24:10;;;;;;;38.10;15.20;;;;;;;16.58;68.88;102035.94;4998322;28;20520;-82
2023/05/26 06:26:37;;;;;;;30.65;15.57;;;;;;;17.61;66.36;102033.72;5001154;28;20157;-81
2023/05/26 06:29:04;;;;;;;35.30;15.65;;;;;;;18.07;64.01;102034.78;5000798;28;20145;-82
2023/05/26 06:31:30;;;;;;;30.67;14.88;;;;;;;18.03;63.15;102028.19;4994372;28;20153;-82
2023/05/26 06:33:57;;;;;;;39.50;16.20;;;;;;;17.92;63.89;102031.22;4998463;28;20482;-82
2023/05/26 06:36:23;;;;;;;38.33;17.30;;;;;;;17.34;63.74;102034.91;4996198;28;20050;-82
2023/05/26 06:38:51;;;;;;;;;;;;;;;17.20;64.80;102041.69;4997422;28;19937;-82
2023/05/26 06:41:18;;;;;;;;;;;;;;;16.01;66.99;102048.97;4998842;28;19929;-82
2023/05/26 06:43:44;;;;;;;;;;;;;;;16.62;67.17;102041.75;4999600;28;19945;-82
2023/05/26 06:46:10;;;;;;;;;;;;;;;16.43;67.48;102051.63;4995434;28;20012;-82
2023/05/26 06:48:37;;;;;;;;;;;;;;;15.46;69.07;102057.16;4998821;28;20364;-81
2023/05/26 06:51:03;;;;;;;;;;;;;;;15.32;70.32;102064.78;4997306;28;19953;-80
2023/05/26 06:53:30;;;;;;;40.42;18.40;;;;;;;16.11;69.21;102062.84;4991297;28;20020;-80
2023/05/26 06:55:59;;;;;;;42.45;18.15;;;;;;;15.82;69.06;102057.09;4993604;28;20058;-78
2023/05/26 06:58:26;;;;;;;36.17;16.45;;;;;;;15.94;68.83;102058.47;4995247;28;20129;-78
2023/05/26 07:00:59;;;;;;;35.80;13.80;;;;;;;15.10;70.66;102069.53;4992410;28;20054;-79
2023/05/26 07:03:26;;;;;;;31.77;12.85;;;;;;;15.79;69.47;102065.31;4998894;28;20125;-79
2023/05/26 07:05:53;;;;;;;29.98;13.32;;;;;;;14.93;71.19;102065.91;4998247;28;20054;-79
2023/05/26 07:08:20;;;;;;;39.75;15.57;;;;;;;15.79;70.29;102070.59;4998795;28;20074;-80
2023/05/26 07:10:46;;;;;;;34.72;15.60;;;;;;;15.03;71.17;102079.03;4999684;28;20077;-79
2023/05/26 07:13:15;;;;;;;38.95;17.38;;;;;;;14.84;72.11;102079.97;4995558;28;20082;-79
2023/05/26 07:15:42;;;;;;;46.45;19.30;;;;;;;14.79;72.53;102084.84;4997525;28;20141;-79
2023/05/26 07:18:08;;;;;;;40.40;19.52;;;;;;;15.66;71.24;102086.00;4997750;28;20133;-80
2023/05/26 07:20:35;;;;;;;36.60;16.42;;;;;;;15.51;70.27;102070.72;4995568;28;20054;-79
2023/05/26 07:23:02;;;;;;;35.88;15.23;;;;;;;15.83;70.51;102080.69;4997123;28;20054;-79
2023/05/26 07:25:30;;;;;;;30.58;13.40;;;;;;;16.26;68.97;102079.78;4994959;28;20043;-79
2023/05/26 07:27:57;;;;;;;36.50;14.98;;;;;;;17.76;66.23;102077.09;4994767;28;20062;-80
2023/05/26 07:30:25;;;;;;;34.33;13.38;;;;;;;17.83;64.16;102070.94;4999120;28;20054;-81
2023/05/26 07:32:51;;;;;;;30.60;12.75;;;;;;;18.38;62.02;102056.03;5002731;28;20050;-81
2023/05/26 07:35:18;;;;;;;33.75;13.73;;;;;;;17.11;64.88;102071.78;4997035;28;20085;-81
2023/05/26 07:37:45;;;;;;;31.13;16.15;;;;;;;17.66;64.56;102074.63;4995074;28;20078;-82
2023/05/26 07:40:12;;;;;;;35.53;15.85;;;;;;;18.64;62.98;102064.53;4998087;28;20078;-82
2023/05/26 07:42:39;;;;;;;33.30;15.95;;;;;;;19.31;61.52;102051.47;5001100;28;20323;-81
2023/05/26 07:45:07;;;;;;;30.63;15.25;;;;;;;18.36;60.79;102042.13;5001519;28;20082;-81
2023/05/26 07:47:35;;;;;;;32.35;15.23;;;;;;;17.67;62.58;102055.09;4997506;28;20133;-81
2023/05/26 07:50:03;;;;;;;37.88;15.85;;;;;;;17.68;64.47;102062.03;5000223;28;20054;-81
2023/05/26 07:52:30;;;;;;;31.98;14.88;;;;;;;17.64;63.82;102057.22;4994419;28;20164;-80
2023/05/26 07:54:57;;;;;;;34.10;15.70;;;;;;;17.76;63.59;102063.84;4994545;28;20050;-81
2023/05/26 07:57:23;;;;;;;34.83;14.82;;;;;;;17.92;64.34;102066.47;4996100;28;20049;-80
2023/05/26 07:59:50;;;;;;;39.85;15.32;;;;;;;17.86;63.77;102064.50;4993600;28;20118;-80
2023/05/26 08:02:16;;;;;;;38.13;16.58;;;;;;;17.29;65.06;102069.81;4992427;28;20096;-81
2023/05/26 08:04:44;;;;;;;36.00;14.45;;;;;;;18.44;63.22;102064.09;4994350;28;20537;-81
2023/05/26 08:07:11;;;;;;;31.67;15.18;;;;;;;17.83;63.45;102059.53;4995269;28;20519;-81
2023/05/26 08:09:38;;;;;;;37.47;13.93;;;;;;;17.68;64.20;102067.34;4996352;28;20082;-81
2023/05/26 08:12:06;;;;;;;33.83;13.95;;;;;;;18.73;63.13;102065.31;5007720;28;20514;-81
2023/05/26 08:14:32;;;;;;;33.70;13.57;;;;;;;19.54;61.06;102067.38;5005435;28;20086;-81
2023/05/26 08:16:59;;;;;;;32.72;13.32;;;;;;;20.20;59.48;102053.22;5000865;28;20089;-81
2023/05/26 08:19:26;;;;;;;33.45;13.93;;;;;;;19.87;60.24;102049.28;4998915;28;20081;-82
2023/05/26 08:21:54;;;;;;;31.02;12.45;;;;;;;19.73;59.57;102053.59;4999280;28;20137;-81
2023/05/26 08:24:22;;;;;;;27.92;12.73;;;;;;;20.24;58.30;102044.88;4994335;28;20046;-82
2023/05/26 08:27:00;;;;;;;28.50;13.45;;;;;;;20.33;58.64;102055.22;5000717;28;20080;-83
2023/05/26 08:29:27;;;;;;;31.77;14.18;;;;;;;17.82;61.08;102047.28;4999279;28;20104;-82
2023/05/26 08:31:54;;;;;;;32.58;14.65;;;;;;;19.05;61.64;102064.28;4997938;28;20054;-82
2023/05/26 08:34:21;;;;;;;36.40;15.18;;;;;;;19.52;59.57;102054.28;4999442;28;20076;-82
2023/05/26 08:36:48;;;;;;;31.58;14.02;;;;;;;19.28;59.69;102051.00;4997023;28;20581;-82
2023/05/26 08:39:16;;;;;;;31.20;14.23;;;;;;;17.39;63.10;102067.00;4999898;28;20130;-81
2023/05/26 08:41:48;;;;;;;34.42;15.05;;;;;;;17.34;65.65;102074.59;5000378;28;20050;-81
2023/05/26 08:44:17;;;;;;;35.15;15.00;;;;;;;17.70;64.70;102067.16;4994611;28;20077;-81
2023/05/26 08:46:45;;;;;;;35.10;14.30;;;;;;;18.13;63.34;102056.13;5003214;28;20050;-81
2023/05/26 08:49:16;;;;;;;31.10;14.07;;;;;;;19.17;61.97;102054.91;4998494;28;20129;-82
2023/05/26 08:51:45;;;;;;;31.63;14.63;;;;;;;19.25;62.10;102044.22;4993841;28;20050;-82
2023/05/26 08:54:12;;;;;;;33.45;14.40;;;;;;;18.91;62.36;102044.63;4997511;28;20085;-82
2023/05/26 08:56:41;;;;;;;33.13;13.45;;;;;;;18.36;61.99;102031.53;4998837;28;20129;-83
2023/05/26 08:59:09;;;;;;;33.60;13.93;;;;;;;19.16;61.89;102045.28;4999160;28;20093;-82
2023/05/26 09:01:36;;;;;;;27.73;13.00;;;;;;;19.94;60.05;102044.88;5001202;28;20418;-83
2023/05/26 09:04:05;;;;;;;31.65;13.68;;;;;;;18.54;60.98;102042.69;4999677;28;20109;-82
2023/05/26 09:06:35;;;;;;;33.05;13.98;;;;;;;17.64;63.01;102062.50;4999349;28;20062;-82
2023/05/26 09:09:01;;;;;;;27.73;13.27;;;;;;;17.13;64.73;102053.91;4997509;28;20058;-82
2023/05/26 09:11:28;;;;;;;33.20;13.35;;;;;;;17.53;64.81;102059.19;4997630;28;20109;-81
2023/05/26 09:13:56;;;;;;;37.45;13.18;;;;;;;18.57;63.38;102045.00;4990473;28;20097;-81
2023/05/26 09:16:24;;;;;;;35.97;14.32;;;;;;;18.14;63.17;102051.66;4990372;28;20058;-81
2023/05/26 09:18:56;;;;;;;32.05;12.48;;;;;;;18.39;63.36;102068.28;4992322;28;20125;-80
2023/05/26 09:21:23;;;;;;;40.30;14.07;;;;;;;17.25;64.73;102065.84;4997091;28;20514;-79
2023/05/26 09:23:54;;;;;;;28.90;11.73;;;;;;;17.67;65.35;102078.91;4994275;28;20066;-80
2023/05/26 09:26:27;;;;;;;30.83;13.13;;;;;;;17.29;65.13;102072.44;4995096;28;20046;-80
2023/05/26 09:28:56;;;;;;;31.88;13.00;;;;;;;17.30;65.50;102079.41;4994519;28;20077;-80
2023/05/26 09:31:24;;;;;;;31.58;13.02;;;;;;;18.28;64.50;102074.78;4997228;28;20081;-79
2023/05/26 09:33:51;;;;;;;27.42;11.75;;;;;;;18.75;62.41;102052.72;4993895;28;21828;-83
2023/05/26 09:36:23;;;;;;;34.75;12.93;;;;;;;17.17;64.96;102068.47;4994133;28;20105;-81
2023/05/26 09:38:52;;;;;;;31.23;13.15;;;;;;;18.10;64.55;102064.41;4994149;28;20053;-80
2023/05/26 09:41:19;;;;;;;35.03;13.68;;;;;;;17.94;64.47;102071.59;4992549;28;20110;-80
2023/05/26 09:43:46;;;;;;;29.63;12.38;;;;;;;17.64;63.69;102065.16;4995174;28;20125;-79
2023/05/26 09:46:21;;;;;;;32.45;13.23;;;;;;;17.11;65.43;102069.97;4991954;28;20055;-80
2023/05/26 09:48:51;;;;;;;33.47;13.13;;;;;;;17.98;64.49;102067.59;4993740;28;20443;-80
2023/05/26 09:51:20;;;;;;;38.25;12.82;;;;;;;18.68;63.23;102051.75;4994018;28;20057;-81
2023/05/26 09:53:50;;;;;;;29.83;12.02;;;;;;;18.62;62.71;102061.25;4996728;28;20074;-81
2023/05/26 09:56:20;;;;;;;29.20;12.07;;;;;;;18.83;62.34;102058.81;4994424;28;20085;-80
2023/05/26 09:58:50;;;;;;;30.85;11.65;;;;;;;18.49;63.40;102045.84;4992729;28;20483;-80
2023/05/26 10:01:19;;;;;;;25.05;11.77;;;;;;;18.03;63.99;102055.50;4991889;28;20043;-79
2023/05/26 10:03:47;;;;;;;32.70;12.13;;;;;;;17.09;64.66;102048.13;4990726;28;20124;-80
2023/05/26 10:06:17;;;;;;;29.20;12.23;;;;;;;17.09;66.13;102049.94;4991534;28;20731;-79
2023/05/26 10:08:47;;;;;;;35.17;13.05;;;;;;;17.75;65.87;102052.44;4996061;28;20050;-80
2023/05/26 10:11:14;;;;;;;29.23;11.15;;;;;;;17.89;64.56;102049.09;4995618;28;20112;-79
2023/05/26 10:13:45;;;;;;;24.25;11.57;;;;;;;17.23;65.06;102046.66;4995325;28;20056;-81
2023/05/26 10:16:12;;;;;;;27.13;11.52;;;;;;;17.66;64.65;102047.31;4999959;28;20081;-80
2023/05/26 10:18:50;;;;;;;28.35;12.38;;;;;;;17.23;64.95;102046.66;5000324;28;20116;-80
2023/05/26 10:21:24;;;;;;;29.45;11.55;;;;;;;17.59;65.07;102049.78;4998954;28;20446;-81
2023/05/26 10:23:58;;;;;;;34.50;11.15;;;;;;;17.42;65.09;102025.16;5000608;28;20410;-81
2023/05/26 10:26:30;;;;;;;26.25;11.23;;;;;;;18.09;64.35;102048.69;4998609;28;20066;-80
2023/05/26 10:29:06;;;;;;;31.83;11.93;;;;;;;18.29;63.32;102035.88;4992709;28;20519;-81
2023/05/26 10:31:36;;;;;;;38.78;12.55;;;;;;;17.14;64.41;102042.34;4996351;28;20082;-80
2023/05/26 10:34:12;;;;;;;38.42;12.40;;;;;;;17.69;64.63;102041.69;4993592;28;20050;-81
2023/05/26 10:36:41;;;;;;;31.98;12.40;;;;;;;17.98;64.15;102031.34;4993021;28;20133;-80
2023/05/26 10:39:11;;;;;;;32.17;11.32;;;;;;;17.73;64.45;102030.59;4996238;28;20051;-79
2023/05/26 10:41:40;;;;;;;29.85;10.63;;;;;;;18.07;63.98;102025.03;4985701;28;20445;-79
2023/05/26 10:44:27;;;;;;;27.85;10.90;;;;;;;18.15;62.47;102009.09;4996301;28;20114;-79
2023/05/26 10:47:03;;;;;;;29.05;10.63;;;;;;;18.45;62.80;102022.53;4994282;28;20078;-80
2023/05/26 10:49:36;;;;;;;25.17;10.40;;;;;;;18.34;63.03;102023.75;4996266;28;20137;-80
2023/05/26 10:52:12;;;;;;;29.20;11.27;;;;;;;18.48;62.91;102016.88;4993755;28;20489;-79
2023/05/26 10:54:38;;;;;;;26.85;10.75;;;;;;;18.76;62.91;102020.72;4999760;28;20054;-77
2023/05/26 10:57:06;;;;;;;28.88;11.25;;;;;;;18.60;62.34;102019.97;4995603;28;20047;-79
2023/05/26 10:59:35;;;;;;;28.25;10.57;;;;;;;17.92;63.26;102025.91;4997136;28;20050;-80
2023/05/26 11:02:04;;;;;;;35.35;11.55;;;;;;;17.82;63.54;102021.63;4994809;28;20070;-79
2023/05/26 11:04:41;;;;;;;31.55;10.68;;;;;;;17.98;63.52;102019.91;4998228;28;20474;-79
2023/05/26 11:07:16;;;;;;;28.63;11.02;;;;;;;17.77;64.42;102029.25;4997178;28;20062;-77
2023/05/26 11:09:57;;;;;;;27.77;11.98;;;;;;;17.93;64.19;102022.28;4995480;28;20436;-80
2023/05/26 11:12:24;;;;;;;31.90;11.35;;;;;;;18.15;63.86;102010.91;4995315;28;20049;-78
2023/05/26 11:14:50;;;;;;;33.15;11.80;;;;;;;18.62;63.22;102002.91;4992028;28;20050;-79
2023/05/26 11:17:19;;;;;;;29.88;10.75;;;;;;;18.83;62.33;102003.13;5001581;28;20138;-81